createdAt,value
2023-01-13T00:01:26.501Z,100961.39
2023-01-13T00:03:54.711Z,100967.64
2023-01-13T00:06:27.098Z,100970.27
2023-01-13T00:08:55.141Z,100965.55
2023-01-13T00:11:23.173Z,100968.64
2023-01-13T00:13:51.194Z,100967.46
2023-01-13T00:16:19.983Z,100967.66
2023-01-13T00:18:49.121Z,100969.02
2023-01-13T00:21:21.405Z,100965.84
2023-01-13T00:23:49.485Z,100968.95
2023-01-13T00:26:21.754Z,100975.73
2023-01-13T00:28:49.746Z,100975.23
2023-01-13T00:31:19.242Z,100974.12
2023-01-13T00:33:49.132Z,100967.00
2023-01-13T00:36:18.938Z,100964.20
2023-01-13T00:38:47.629Z,100964.23
2023-01-13T00:41:17.532Z,100962.96
2023-01-13T00:43:45.389Z,100965.17
2023-01-13T00:46:14.945Z,100966.93
2023-01-13T00:48:44.648Z,100960.28
2023-01-13T00:51:20.243Z,100961.11
2023-01-13T00:53:49.849Z,100958.20
2023-01-13T00:56:38.587Z,100955.12
2023-01-13T00:59:11.573Z,100957.94
2023-01-13T01:01:39.861Z,100959.36
2023-01-13T01:04:07.923Z,100959.36
2023-01-13T01:06:36.421Z,100952.59
2023-01-13T01:09:04.436Z,100949.29
2023-01-13T01:11:33.188Z,100950.03
2023-01-13T01:14:02.628Z,100951.50
2023-01-13T01:16:34.121Z,100950.22
2023-01-13T01:19:02.418Z,100944.38
2023-01-13T01:21:30.477Z,100944.77
2023-01-13T01:24:00.490Z,100940.94
2023-01-13T01:26:33.183Z,100941.58
2023-01-13T01:29:02.173Z,100938.49
2023-01-13T01:31:32.751Z,100931.07
2023-01-13T01:34:01.562Z,100933.89
2023-01-13T01:36:34.768Z,100931.90
2023-01-13T01:39:02.721Z,100931.39
2023-01-13T01:41:33.164Z,100931.77
2023-01-13T01:44:10.240Z,100927.11
2023-01-13T01:46:42.886Z,100925.83
2023-01-13T01:49:18.126Z,100923.15
2023-01-13T01:51:53.084Z,100921.05
2023-01-13T01:54:25.322Z,100919.82
2023-01-13T01:56:53.325Z,100917.58
2023-01-13T01:59:21.072Z,100919.54
2023-01-13T02:01:49.246Z,100918.52
2023-01-13T04:03:11.208Z,100883.36
2023-01-13T04:05:41.291Z,100882.06
2023-01-13T04:08:21.247Z,100879.23
2023-01-13T04:10:58.896Z,100880.77
2023-01-13T04:13:28.970Z,100882.27
2023-01-13T04:15:57.516Z,100878.30
2023-01-13T04:18:30.260Z,100883.30
2023-01-13T04:21:01.615Z,100878.84
2023-01-13T04:23:29.677Z,100882.63
2023-01-13T04:25:58.442Z,100880.35
2023-01-13T04:28:26.292Z,100879.44
2023-01-13T04:30:53.953Z,100878.23
2023-01-13T04:33:21.910Z,100883.30
2023-01-13T04:35:49.876Z,100879.45
2023-01-13T04:38:18.725Z,100886.58
2023-01-13T04:40:46.565Z,100886.57
2023-01-13T04:43:15.563Z,100888.02
2023-01-13T04:45:43.391Z,100888.52
2023-01-13T04:48:11.019Z,100892.25
2023-01-13T04:50:39.093Z,100890.75
2023-01-13T04:53:07.185Z,100886.72
2023-01-13T04:55:35.099Z,100886.25
2023-01-13T04:58:07.381Z,100884.30
2023-01-13T05:00:35.320Z,100882.48
2023-01-13T05:03:03.177Z,100880.42
2023-01-13T05:05:31.153Z,100880.39
2023-01-13T05:08:02.178Z,100881.62
2023-01-13T05:10:30.437Z,100887.86
2023-01-13T05:13:17.935Z,100890.02
2023-01-13T05:16:06.614Z,100891.02
2023-01-13T05:18:35.260Z,100892.30
2023-01-13T05:21:03.046Z,100895.32
2023-01-13T05:23:49.360Z,100895.11
2023-01-13T05:26:17.209Z,100895.40
2023-01-13T05:28:44.791Z,100896.77
2023-01-13T05:31:14.604Z,100900.45
2023-01-13T05:33:42.261Z,100897.66
2023-01-13T05:36:09.711Z,100897.40
2023-01-13T05:38:39.232Z,100891.92
2023-01-13T05:41:26.797Z,100885.33
2023-01-13T05:43:54.307Z,100889.35
2023-01-13T05:46:21.702Z,100893.92
2023-01-13T05:48:49.106Z,100891.82
2023-01-13T05:51:16.464Z,100894.14
2023-01-13T05:53:43.906Z,100893.96
2023-01-13T05:56:11.360Z,100897.98
2023-01-13T05:58:38.835Z,100900.64
2023-01-13T06:01:07.660Z,100901.06
2023-01-13T06:03:37.268Z,100904.95
2023-01-13T06:06:04.846Z,100907.06
2023-01-13T06:08:33.862Z,100907.52
2023-01-13T06:11:06.491Z,100910.79
2023-01-13T08:00:05.185Z,100917.47
2023-01-13T08:02:33.247Z,100918.59
2023-01-13T08:05:02.788Z,100919.99
2023-01-13T08:07:30.702Z,100925.28
2023-01-13T08:09:58.306Z,100925.60
2023-01-13T08:12:52.773Z,100931.53
2023-01-13T08:15:25.228Z,100928.36
2023-01-13T08:17:52.598Z,100926.65
2023-01-13T08:20:19.997Z,100926.67
2023-01-13T08:22:47.326Z,100921.25
2023-01-13T08:25:14.799Z,100917.08
2023-01-13T08:27:42.161Z,100913.21
2023-01-13T08:30:11.280Z,100912.94
2023-01-13T08:32:38.940Z,100905.11
2023-01-13T08:35:07.556Z,100898.71
2023-01-13T08:37:34.973Z,100893.58
2023-01-13T08:40:02.775Z,100885.89
2023-01-13T08:42:30.812Z,100888.60
2023-01-13T08:44:58.235Z,100892.19
2023-01-13T08:47:27.319Z,100893.40
2023-01-13T08:49:54.815Z,100897.50
2023-01-13T08:52:22.331Z,100893.58
2023-01-13T08:54:49.743Z,100898.41
2023-01-13T08:57:20.558Z,100903.55
2023-01-13T08:59:48.019Z,100899.76
2023-01-13T09:02:19.858Z,100895.13
2023-01-13T09:04:48.420Z,100895.36
2023-01-13T09:07:15.973Z,100894.52
2023-01-13T09:09:43.955Z,100891.89
2023-01-13T09:12:32.341Z,100886.84
2023-01-13T09:15:00.111Z,100879.82
2023-01-13T09:17:28.197Z,100881.61
2023-01-13T09:19:56.156Z,100881.66
2023-01-13T09:22:26.851Z,100882.42
2023-01-13T09:24:54.824Z,100883.33
2023-01-13T09:27:22.623Z,100882.40
2023-01-13T09:29:50.233Z,100878.52
2023-01-13T09:32:17.571Z,100878.56
2023-01-13T09:35:01.012Z,100880.85
2023-01-13T09:37:30.763Z,100880.54
2023-01-13T09:39:58.077Z,100878.33
2023-01-13T09:43:11.320Z,100879.61
2023-01-13T09:45:53.780Z,100872.48
2023-01-13T09:48:30.916Z,100874.83
2023-01-13T09:51:16.535Z,100874.09
2023-01-13T09:57:56.497Z,100862.18
2023-01-13T10:00:32.529Z,100857.30
2023-01-13T10:03:14.030Z,100857.42
2023-01-13T10:06:04.483Z,100858.23
2023-01-13T10:08:33.232Z,100863.00
2023-01-13T10:11:25.450Z,100861.24
2023-01-13T10:13:57.164Z,100855.62
2023-01-13T10:16:53.754Z,100852.38
2023-01-13T10:19:32.949Z,100849.48
2023-01-13T10:22:21.527Z,100848.86
2023-01-13T10:25:10.381Z,100848.98
2023-01-13T10:27:40.528Z,100848.05
2023-01-13T10:30:21.236Z,100845.30
2023-01-13T10:32:59.772Z,100837.27
2023-01-13T10:35:49.738Z,100833.92
2023-01-13T10:38:22.593Z,100832.10
2023-01-13T10:40:55.246Z,100836.18
2023-01-13T10:43:23.718Z,100832.72
2023-01-13T10:45:59.490Z,100826.33
2023-01-13T10:48:44.224Z,100823.63
2023-01-13T10:51:23.509Z,100820.73
2023-01-13T10:54:24.126Z,100819.50
2023-01-13T10:57:15.643Z,100816.48
2023-01-13T10:59:43.836Z,100817.91
2023-01-13T11:02:30.979Z,100815.23
2023-01-13T11:05:02.933Z,100817.29
2023-01-13T11:07:32.116Z,100820.61
2023-01-13T11:10:24.281Z,100817.66
2023-01-13T11:13:17.847Z,100812.77
2023-01-13T11:16:10.698Z,100813.18
2023-01-13T11:18:40.050Z,100812.03
2023-01-13T11:21:17.767Z,100806.89
2023-01-13T11:23:48.731Z,100808.23
2023-01-13T11:26:29.553Z,100806.36
2023-01-13T11:29:04.442Z,100803.75
2023-01-13T11:31:36.677Z,100804.93
2023-01-13T11:34:25.901Z,100809.27
2023-01-13T11:36:55.091Z,100810.17
2023-01-13T11:39:26.643Z,100813.83
2023-01-13T11:42:21.133Z,100814.83
2023-01-13T11:44:58.423Z,100808.08
2023-01-13T11:47:26.062Z,100807.33
2023-01-13T11:49:53.449Z,100801.77
2023-01-13T11:52:58.907Z,100799.27
2023-01-13T11:55:35.514Z,100797.88
2023-01-13T11:58:12.375Z,100797.08
2023-01-13T12:00:40.093Z,100795.33
2023-01-13T12:03:18.933Z,100792.23
2023-01-13T12:05:59.448Z,100791.77
2023-01-13T12:08:48.464Z,100792.90
2023-01-13T12:11:56.794Z,100794.98
2023-01-13T12:14:27.733Z,100795.54
2023-01-13T12:16:55.253Z,100794.20
2023-01-13T12:19:25.825Z,100794.02
2023-01-13T12:22:27.894Z,100800.05
2023-01-13T12:25:22.103Z,100805.55
2023-01-13T12:27:55.573Z,100809.08
2023-01-13T12:30:48.146Z,100813.07
2023-01-13T12:33:51.569Z,100816.08
2023-01-13T12:36:27.743Z,100814.95
2023-01-13T12:39:08.895Z,100812.89
2023-01-13T12:42:04.862Z,100813.61
2023-01-13T12:44:32.432Z,100808.46
2023-01-13T12:46:59.920Z,100811.46
2023-01-13T12:49:32.297Z,100815.52
2023-01-13T12:52:06.893Z,100810.54
2023-01-13T12:54:37.421Z,100817.11
2023-01-13T12:57:20.635Z,100810.01
2023-01-13T13:00:03.309Z,100808.77
2023-01-13T13:02:41.627Z,100809.65
2023-01-13T13:05:15.414Z,100813.46
2023-01-13T13:07:49.594Z,100815.67
2023-01-13T13:10:28.543Z,100817.83
2023-01-13T13:13:21.317Z,100822.98
2023-01-13T13:15:49.359Z,100813.64
2023-01-13T13:18:16.929Z,100815.86
2023-01-13T13:20:55.430Z,100817.27
2023-01-13T13:23:38.924Z,100818.45
2023-01-13T13:26:45.290Z,100812.34
2023-01-13T13:29:21.995Z,100812.73
2023-01-13T13:32:01.632Z,100811.46
2023-01-13T13:34:38.722Z,100815.05
2023-01-13T13:37:28.253Z,100806.73
2023-01-13T13:40:14.820Z,100812.75
2023-01-13T13:43:03.021Z,100813.55
2023-01-13T13:45:49.505Z,100816.08
2023-01-13T13:48:28.141Z,100820.38
2023-01-13T13:51:01.586Z,100822.63
2023-01-13T13:53:37.073Z,100819.73
2023-01-13T13:56:14.189Z,100824.34
2023-01-13T13:58:41.814Z,100823.08
2023-01-13T14:01:27.734Z,100827.15
2023-01-13T14:04:07.592Z,100832.75
2023-01-13T14:06:37.411Z,100832.84
2023-01-13T14:09:15.399Z,100832.74
2023-01-13T14:11:42.943Z,100833.52
2023-01-13T14:14:14.916Z,100827.67
2023-01-13T14:16:42.803Z,100825.76
2023-01-13T14:19:33.423Z,100829.86
2023-01-13T14:22:03.695Z,100830.19
2023-01-13T14:24:31.770Z,100825.92
2023-01-13T14:27:29.447Z,100826.77
2023-01-13T14:29:59.078Z,100818.14
2023-01-13T14:32:36.346Z,100819.90
2023-01-13T14:35:07.686Z,100815.70
2023-01-13T14:37:38.361Z,100815.34
2023-01-13T14:40:06.349Z,100817.21
2023-01-13T14:42:35.322Z,100815.30
2023-01-13T14:45:03.440Z,100818.14
2023-01-13T14:47:33.685Z,100814.64
2023-01-13T14:50:06.026Z,100811.80
2023-01-13T14:52:35.726Z,100811.30
2023-01-13T14:55:10.082Z,100815.16
2023-01-13T14:57:39.349Z,100818.20
2023-01-13T15:00:16.162Z,100815.98
2023-01-13T15:02:47.117Z,100813.70
2023-01-13T15:05:23.943Z,100816.31
2023-01-13T15:07:52.780Z,100814.75
2023-01-13T15:10:54.552Z,100814.15
2023-01-13T15:13:36.425Z,100816.80
2023-01-13T15:16:07.911Z,100813.00
2023-01-13T15:18:39.801Z,100810.60
2023-01-13T15:21:09.033Z,100808.70
2023-01-13T15:23:38.267Z,100808.29
2023-01-13T15:26:24.143Z,100813.59
2023-01-13T15:28:52.775Z,100810.78
2023-01-13T15:31:20.589Z,100809.53
2023-01-13T15:33:48.917Z,100807.11
2023-01-13T15:36:21.612Z,100807.09
2023-01-13T15:38:49.487Z,100809.66
2023-01-13T15:41:17.610Z,100812.02
2023-01-13T15:44:03.957Z,100812.66
2023-01-13T15:46:37.746Z,100815.14
2023-01-13T15:49:15.768Z,100820.82
2023-01-13T15:51:44.748Z,100827.26
2023-01-13T15:54:12.673Z,100819.19
2023-01-13T15:56:41.927Z,100816.83
2023-01-13T15:59:16.556Z,100816.27
2023-01-13T16:01:45.091Z,100820.05
2023-01-13T16:04:13.084Z,100822.64
2023-01-13T16:06:40.924Z,100821.44
2023-01-13T16:09:12.948Z,100823.29
2023-01-13T16:11:41.067Z,100815.77
2023-01-13T16:14:08.651Z,100814.08
2023-01-13T16:16:37.045Z,100809.76
2023-01-13T16:19:04.791Z,100811.73
2023-01-13T16:21:32.600Z,100806.87
2023-01-13T16:24:00.275Z,100808.30
2023-01-13T16:26:32.471Z,100805.87
2023-01-13T16:29:00.073Z,100805.38
2023-01-13T16:31:31.531Z,100803.39
2023-01-13T16:33:59.681Z,100801.93
2023-01-13T16:36:28.208Z,100810.57
2023-01-13T16:38:57.647Z,100812.77
2023-01-13T16:41:25.508Z,100812.60
2023-01-13T16:43:53.334Z,100809.42
2023-01-13T16:46:25.629Z,100811.14
2023-01-13T16:48:55.062Z,100810.20
2023-01-13T16:51:23.232Z,100801.71
2023-01-13T16:53:50.854Z,100806.44
2023-01-13T16:56:27.087Z,100805.88
2023-01-13T16:58:56.947Z,100804.90
2023-01-13T17:01:28.265Z,100803.41
2023-01-13T17:03:56.286Z,100803.41
2023-01-13T17:06:54.411Z,100802.70
2023-01-13T17:09:24.884Z,100805.80
2023-01-13T17:11:53.078Z,100808.34
2023-01-13T17:14:23.104Z,100809.61
2023-01-13T17:16:53.174Z,100804.45
2023-01-13T17:19:22.926Z,100804.20
2023-01-13T17:21:53.560Z,100802.64
2023-01-13T17:24:21.409Z,100807.44
2023-01-13T17:26:50.131Z,100801.41
2023-01-13T17:29:20.430Z,100798.77
2023-01-13T17:31:49.246Z,100800.73
2023-01-13T17:34:17.213Z,100803.63
2023-01-13T17:36:44.794Z,100804.40
2023-01-13T17:39:20.096Z,100806.36
2023-01-13T17:41:47.673Z,100808.62
2023-01-13T17:44:16.207Z,100813.21
2023-01-13T17:46:45.097Z,100812.40
2023-01-13T17:49:14.293Z,100811.48
2023-01-13T22:02:24.462Z,100792.13
2023-01-13T22:04:53.482Z,100792.59
2023-01-13T22:07:22.082Z,100790.92
2023-01-13T22:09:49.995Z,100794.97
2023-01-13T22:12:22.845Z,100796.33
2023-01-13T22:14:52.253Z,100794.88
2023-01-13T22:17:23.834Z,100796.77
2023-01-13T22:19:53.133Z,100794.84
2023-01-13T22:22:21.956Z,100797.35
2023-01-13T22:24:51.417Z,100797.80
2023-01-13T22:27:24.120Z,100799.20
2023-01-13T22:29:52.894Z,100787.75
2023-01-13T22:32:21.088Z,100791.03
2023-01-13T22:34:49.096Z,100802.48
2023-01-13T22:37:17.064Z,100800.96
2023-01-13T22:39:44.724Z,100795.04
2023-01-13T22:42:12.497Z,100791.02
2023-01-13T22:44:40.312Z,100788.35
2023-01-13T22:47:08.999Z,100786.27
2023-01-13T22:49:36.840Z,100785.90
2023-01-13T22:52:04.666Z,100783.16
2023-01-13T22:54:32.358Z,100787.01
2023-01-13T22:57:00.080Z,100784.48
2023-01-13T22:59:27.927Z,100781.39
2023-01-13T23:01:55.546Z,100776.70
2023-01-13T23:04:23.640Z,100776.73
2023-01-13T23:06:51.643Z,100776.88
2023-01-13T23:09:19.314Z,100775.41
2023-01-13T23:11:47.906Z,100769.45
2023-01-13T23:14:15.799Z,100768.55
2023-01-13T23:16:43.601Z,100764.74
2023-01-13T23:19:14.423Z,100768.50
2023-01-13T23:21:42.248Z,100759.31
2023-01-13T23:24:10.425Z,100756.85
2023-01-13T23:26:38.228Z,100758.98
2023-01-13T23:29:07.968Z,100761.00
2023-01-13T23:31:35.626Z,100759.30
2023-01-13T23:34:03.334Z,100758.01
2023-01-13T23:36:31.247Z,100754.20
2023-01-13T23:38:59.759Z,100763.10
2023-01-13T23:41:28.197Z,100756.71
2023-01-13T23:44:00.266Z,100752.96
2023-01-13T23:46:29.333Z,100752.16
2023-01-13T23:48:57.269Z,100752.13
2023-01-13T23:51:26.748Z,100748.33
2023-01-13T23:53:54.617Z,100748.34
2023-01-13T23:56:27.402Z,100745.91
2023-01-13T23:58:55.484Z,100749.54
